Time;durP1;ratioP1;P1;durP2;ratioP2;P2;SDS_P1;SDS_P2;PMS_P1;PMS_P2;Temp;Humidity;BMP_temperature;BMP_pressure;BME280_temperature;BME280_humidity;BME280_pressure;Samples;Min_cycle;Max_cycle;Signal;HPM_P1;HPM_P2
2021/01/27 00:00:34;;;;;;;40.38;33.28;;;2.10;98.80;;;;;;5036997;28;20037;-80
2021/01/27 00:03:01;;;;;;;43.63;35.45;;;2.10;98.80;;;;;;5042832;28;20331;-81
2021/01/27 00:05:38;;;;;;;43.25;34.15;;;2.20;98.80;;;;;;5025664;28;20042;-81
2021/01/27 00:08:05;;;;;;;41.88;33.92;;;2.20;98.90;;;;;;5022081;28;20095;-80
2021/01/27 00:10:32;;;;;;;38.53;32.17;;;2.10;98.80;;;;;;5047872;28;20038;-80
2021/01/27 00:12:59;;;;;;;42.65;33.25;;;2.10;98.80;;;;;;5009184;28;20041;-80
2021/01/27 00:15:31;;;;;;;43.80;35.17;;;2.10;98.70;;;;;;5030841;28;20065;-81
2021/01/27 00:17:57;;;;;;;45.13;34.40;;;2.20;98.80;;;;;;5026728;28;20100;-81
2021/01/27 00:20:24;;;;;;;42.30;34.17;;;2.10;98.70;;;;;;5044471;28;20163;-81
2021/01/27 00:22:51;;;;;;;39.22;33.17;;;2.10;98.60;;;;;;5016814;28;20056;-81
2021/01/27 00:25:20;;;;;;;41.67;34.50;;;2.20;98.70;;;;;;5031627;28;20044;-80
2021/01/27 00:27:46;;;;;;;44.17;34.40;;;2.10;98.60;;;;;;5048880;28;20056;-81
2021/01/27 00:30:24;;;;;;;42.45;33.83;;;2.10;98.60;;;;;;5039923;28;20041;-81
2021/01/27 00:32:51;;;;;;;48.13;34.95;;;2.10;98.60;;;;;;5028804;28;20144;-81
2021/01/27 00:35:19;;;;;;;43.65;34.97;;;2.10;98.70;;;;;;5061982;28;20063;-81
2021/01/27 00:37:45;;;;;;;49.38;35.30;;;2.00;98.60;;;;;;5029168;28;20385;-80
2021/01/27 00:40:12;;;;;;;43.88;34.78;;;2.00;98.60;;;;;;5076977;28;20037;-81
2021/01/27 00:42:38;;;;;;;43.03;33.53;;;2.00;98.60;;;;;;5053194;28;20052;-80
2021/01/27 00:45:05;;;;;;;42.80;35.45;;;2.00;98.40;;;;;;5046365;28;20107;-81
2021/01/27 00:47:31;;;;;;;39.13;32.65;;;2.00;98.50;;;;;;5040204;28;20131;-80
2021/01/27 00:49:57;;;;;;;42.60;36.17;;;2.00;98.40;;;;;;5049166;28;20045;-80
2021/01/27 00:52:23;;;;;;;48.25;36.25;;;2.00;98.40;;;;;;5033373;28;20139;-80
2021/01/27 00:54:49;;;;;;;50.17;37.03;;;1.90;98.40;;;;;;5066204;28;20114;-81
2021/01/27 00:57:15;;;;;;;45.85;37.17;;;2.00;98.40;;;;;;5067663;28;20056;-80
2021/01/27 00:59:40;;;;;;;49.40;38.80;;;2.00;98.40;;;;;;5030067;28;20080;-81
2021/01/27 01:02:06;;;;;;;46.08;37.85;;;1.90;98.40;;;;;;5035344;28;20041;-80
2021/01/27 01:04:32;;;;;;;49.08;38.55;;;1.90;98.40;;;;;;5057293;28;20037;-81
2021/01/27 01:06:58;;;;;;;47.25;36.47;;;1.90;98.40;;;;;;5032524;28;20140;-81
2021/01/27 01:09:24;;;;;;;52.88;40.35;;;1.90;98.40;;;;;;5028828;28;20059;-80
2021/01/27 01:11:50;;;;;;;50.53;40.83;;;1.90;98.50;;;;;;5038620;28;20037;-80
2021/01/27 01:14:16;;;;;;;47.25;36.08;;;1.90;98.80;;;;;;5035077;28;20100;-80
2021/01/27 01:16:42;;;;;;;51.75;38.67;;;1.90;98.50;;;;;;5040373;28;20096;-80
2021/01/27 01:19:11;;;;;;;50.13;39.40;;;1.90;98.50;;;;;;5069522;28;20042;-81
2021/01/27 01:21:36;;;;;;;47.20;39.38;;;1.90;98.50;;;;;;5061251;28;20045;-80
2021/01/27 01:24:03;;;;;;;49.00;38.90;;;1.90;98.50;;;;;;5050315;28;20063;-80
2021/01/27 01:26:28;;;;;;;46.10;37.67;;;1.90;98.40;;;;;;5034463;28;20054;-81
2021/01/27 01:28:56;;;;;;;45.42;37.25;;;1.90;98.50;;;;;;5054242;28;20037;-80
2021/01/27 01:31:22;;;;;;;49.85;37.05;;;1.80;98.40;;;;;;5063989;28;20043;-81
2021/01/27 01:33:48;;;;;;;45.28;37.80;;;1.80;98.40;;;;;;5041017;28;20789;-81
2021/01/27 01:36:14;;;;;;;42.33;36.67;;;1.80;98.40;;;;;;5054725;28;20354;-81
2021/01/27 01:38:39;;;;;;;42.90;34.78;;;1.80;98.40;;;;;;5055542;28;20033;-82
2021/01/27 01:41:06;;;;;;;41.63;35.33;;;1.80;98.30;;;;;;5067183;28;20056;-81
2021/01/27 01:43:37;;;;;;;40.33;34.10;;;1.80;98.30;;;;;;5032969;28;20067;-81
2021/01/27 01:46:17;;;;;;;39.88;32.85;;;1.90;98.40;;;;;;5044576;28;20127;-81
2021/01/27 01:48:55;;;;;;;43.90;32.20;;;1.90;98.40;;;;;;5049922;28;20487;-80
2021/01/27 01:51:25;;;;;;;32.38;28.30;;;1.90;98.40;;;;;;5034124;28;20043;-81
2021/01/27 01:53:56;;;;;;;37.75;30.42;;;1.90;98.30;;;;;;5027312;28;20077;-81
2021/01/27 01:56:32;;;;;;;33.97;28.25;;;1.90;98.20;;;;;;5061618;28;20056;-81
2021/01/27 01:59:01;;;;;;;30.52;27.33;;;1.90;98.20;;;;;;5038690;28;20580;-80
2021/01/27 02:01:27;;;;;;;30.10;25.50;;;1.90;97.90;;;;;;5032219;28;20091;-81
2021/01/27 02:03:54;;;;;;;29.08;25.92;;;1.90;97.70;;;;;;5039354;28;20124;-81
2021/01/27 02:06:21;;;;;;;29.10;25.67;;;2.00;97.70;;;;;;5059577;28;20038;-81
2021/01/27 02:08:51;;;;;;;26.08;23.08;;;1.90;97.50;;;;;;5052742;28;20041;-81
2021/01/27 02:11:21;;;;;;;26.27;21.50;;;1.90;97.70;;;;;;5055315;28;20487;-81
2021/01/27 02:13:59;;;;;;;27.20;21.77;;;1.90;97.50;;;;;;5047171;28;20068;-80
2021/01/27 02:16:48;;;;;;;23.55;19.13;;;1.90;97.60;;;;;;5051376;28;20037;-81
2021/01/27 02:19:52;;;;;;;21.30;18.80;;;1.90;97.40;;;;;;5032846;28;20104;-81
2021/01/27 02:22:42;;;;;;;23.60;17.77;;;1.90;97.20;;;;;;5054873;28;20037;-81
2021/01/27 02:25:23;;;;;;;23.88;18.95;;;1.90;97.10;;;;;;5070622;28;20351;-80
2021/01/27 02:28:02;;;;;;;23.88;17.05;;;1.90;97.10;;;;;;5043776;28;20044;-80
2021/01/27 02:30:50;;;;;;;23.70;18.33;;;1.80;96.80;;;;;;5051080;28;20136;-80
2021/01/27 02:33:19;;;;;;;22.38;17.30;;;1.80;96.60;;;;;;5030388;28;20056;-80
2021/01/27 02:36:09;;;;;;;19.85;17.05;;;1.80;96.50;;;;;;5051085;28;20039;-81
2021/01/27 02:39:01;;;;;;;23.00;17.50;;;1.80;96.50;;;;;;5065358;28;20135;-81
2021/01/27 02:41:37;;;;;;;19.15;15.70;;;1.80;96.30;;;;;;5037882;28;20049;-81
2021/01/27 02:44:09;;;;;;;21.55;15.98;;;1.80;96.40;;;;;;5048790;28;20188;-81
2021/01/27 02:46:42;;;;;;;23.08;17.05;;;1.80;96.60;;;;;;5062712;28;20581;-80
2021/01/27 02:49:17;;;;;;;18.05;15.40;;;1.80;96.50;;;;;;5063749;28;20057;-81
2021/01/27 02:52:05;;;;;;;20.50;15.68;;;1.80;96.40;;;;;;5035882;28;20100;-81
2021/01/27 02:54:36;;;;;;;18.77;15.48;;;1.80;96.10;;;;;;5047307;28;20060;-81
2021/01/27 02:57:25;;;;;;;18.00;13.77;;;1.80;96.10;;;;;;5067721;28;20040;-81
2021/01/27 03:00:05;;;;;;;21.45;15.85;;;1.70;96.10;;;;;;5050121;28;20099;-81
2021/01/27 03:02:38;;;;;;;20.52;13.60;;;1.80;96.20;;;;;;5076168;28;20059;-80
2021/01/27 03:05:21;;;;;;;20.27;13.20;;;1.70;96.00;;;;;;5046980;28;20049;-80
2021/01/27 03:07:54;;;;;;;16.38;13.38;;;1.70;96.10;;;;;;5049577;28;20037;-81
2021/01/27 03:10:28;;;;;;;18.60;13.00;;;1.70;96.20;;;;;;5063697;28;20041;-81
2021/01/27 03:12:54;;;;;;;16.63;12.32;;;1.70;96.30;;;;;;5051360;28;20504;-81
2021/01/27 03:15:21;;;;;;;18.75;12.05;;;1.80;96.00;;;;;;5048400;28;20053;-80
2021/01/27 03:17:59;;;;;;;16.73;12.90;;;1.80;95.80;;;;;;5049842;28;20104;-80
2021/01/27 03:20:31;;;;;;;16.52;13.00;;;1.80;96.10;;;;;;5044796;28;20046;-80
2021/01/27 03:23:20;;;;;;;19.77;12.80;;;1.80;96.30;;;;;;5041887;28;20096;-80
2021/01/27 03:26:08;;;;;;;16.02;12.25;;;1.80;96.00;;;;;;5061943;28;20080;-81
2021/01/27 03:28:43;;;;;;;14.70;11.43;;;1.80;95.80;;;;;;5052401;28;20111;-81
2021/01/27 03:31:10;;;;;;;14.50;12.15;;;1.80;95.70;;;;;;5037192;28;20049;-81
2021/01/27 03:33:45;;;;;;;15.18;11.38;;;1.80;95.80;;;;;;5055433;28;20397;-81
2021/01/27 03:36:12;;;;;;;17.80;10.95;;;1.80;95.80;;;;;;5050697;28;20146;-80
2021/01/27 03:38:44;;;;;;;16.52;11.25;;;1.80;95.50;;;;;;5034844;28;20045;-80
2021/01/27 03:41:12;;;;;;;17.52;11.27;;;1.80;95.70;;;;;;5058941;28;20414;-81
2021/01/27 03:44:01;;;;;;;14.77;11.27;;;1.80;95.60;;;;;;5078132;28;20037;-80
2021/01/27 03:46:35;;;;;;;15.05;10.73;;;1.90;95.50;;;;;;5043572;28;20054;-81
2021/01/27 03:49:14;;;;;;;17.60;11.77;;;1.90;95.40;;;;;;5026133;28;20049;-80
2021/01/27 03:51:44;;;;;;;17.10;11.30;;;1.80;95.80;;;;;;5051256;28;20493;-81
2021/01/27 03:54:17;;;;;;;18.02;11.23;;;1.80;95.40;;;;;;5038482;28;20059;-80
2021/01/27 03:56:55;;;;;;;14.00;10.70;;;1.80;95.60;;;;;;5066437;28;20041;-80
2021/01/27 03:59:21;;;;;;;18.13;11.02;;;1.80;95.30;;;;;;5050467;28;20041;-80
2021/01/27 04:01:55;;;;;;;13.57;10.02;;;1.80;95.60;;;;;;5036106;28;20118;-80
2021/01/27 04:04:22;;;;;;;13.63;10.90;;;1.80;95.60;;;;;;5041687;28;20045;-80
2021/01/27 04:06:48;;;;;;;15.77;11.80;;;1.80;95.50;;;;;;5035427;28;20136;-80
2021/01/27 04:09:15;;;;;;;15.02;10.82;;;1.80;95.70;;;;;;5033905;28;20060;-81
2021/01/27 04:11:41;;;;;;;14.13;12.18;;;1.80;95.90;;;;;;5027459;28;20071;-81
2021/01/27 04:14:07;;;;;;;14.60;11.60;;;1.80;96.00;;;;;;5052583;28;20029;-81
2021/01/27 04:16:34;;;;;;;17.25;11.73;;;1.80;95.90;;;;;;5031366;28;20072;-80
2021/01/27 04:19:02;;;;;;;20.60;13.20;;;1.80;95.90;;;;;;5026944;28;20112;-80
2021/01/27 04:21:28;;;;;;;16.58;12.57;;;1.80;95.90;;;;;;5048201;28;20042;-80
2021/01/27 04:23:53;;;;;;;19.33;13.25;;;1.80;96.10;;;;;;5036634;28;20459;-80
2021/01/27 04:26:21;;;;;;;18.10;13.13;;;1.80;96.00;;;;;;5038429;28;20072;-81
2021/01/27 04:28:51;;;;;;;16.85;13.75;;;1.80;96.20;;;;;;5052872;28;20088;-81
2021/01/27 04:31:17;;;;;;;17.30;12.40;;;1.80;96.20;;;;;;5040745;28;20040;-80
2021/01/27 04:33:43;;;;;;;15.32;13.00;;;1.80;96.00;;;;;;5021893;28;20567;-80
2021/01/27 04:36:09;;;;;;;16.48;13.10;;;1.80;96.10;;;;;;5033536;28;20545;-80
2021/01/27 04:38:35;;;;;;;16.83;12.02;;;1.80;96.10;;;;;;5069311;28;20052;-80
2021/01/27 04:41:02;;;;;;;14.20;11.70;;;1.80;96.00;;;;;;5034655;28;20043;-79
2021/01/27 04:43:35;;;;;;;19.63;13.23;;;1.90;96.10;;;;;;5040785;28;20037;-80
2021/01/27 04:46:26;;;;;;;16.13;12.50;;;1.80;96.30;;;;;;5038193;28;20033;-80
2021/01/27 04:49:16;;;;;;;14.10;11.77;;;1.80;96.20;;;;;;5048014;28;20128;-80
2021/01/27 04:51:42;;;;;;;16.80;12.90;;;1.80;96.40;;;;;;5038804;28;20499;-80
2021/01/27 04:54:20;;;;;;;17.33;11.93;;;1.80;96.50;;;;;;5044134;28;20108;-80
2021/01/27 04:57:22;;;;;;;13.40;11.98;;;1.80;96.70;;;;;;5052708;28;20128;-80
2021/01/27 05:00:07;;;;;;;13.77;11.82;;;1.80;96.50;;;;;;5042215;28;20037;-80
2021/01/27 05:03:02;;;;;;;15.68;11.95;;;1.80;96.60;;;;;;5065552;28;20045;-79
2021/01/27 05:05:33;;;;;;;16.73;13.00;;;1.80;96.60;;;;;;5052839;28;20041;-80
2021/01/27 05:08:09;;;;;;;15.18;12.55;;;1.80;96.60;;;;;;5035917;28;20323;-80
2021/01/27 05:10:57;;;;;;;13.70;12.30;;;1.80;96.70;;;;;;5042811;28;20053;-79
2021/01/27 05:13:36;;;;;;;15.30;13.13;;;1.80;96.60;;;;;;5030044;28;20427;-79
2021/01/27 05:16:11;;;;;;;16.88;13.32;;;1.80;96.50;;;;;;5035133;28;20025;-79
2021/01/27 05:18:37;;;;;;;18.60;12.63;;;1.80;96.50;;;;;;5054089;28;20061;-79
2021/01/27 05:21:05;;;;;;;19.17;13.88;;;1.80;96.60;;;;;;5037920;28;20132;-80
2021/01/27 05:23:32;;;;;;;16.10;13.07;;;1.80;96.50;;;;;;5067144;28;20111;-80
2021/01/27 05:26:09;;;;;;;17.08;13.48;;;1.90;96.50;;;;;;5048969;28;20032;-79
2021/01/27 05:28:39;;;;;;;16.13;11.90;;;1.90;96.80;;;;;;5036324;28;20053;-80
2021/01/27 05:31:05;;;;;;;13.55;12.13;;;1.90;96.40;;;;;;5058383;28;20040;-80
2021/01/27 05:33:51;;;;;;;15.68;12.88;;;1.90;96.40;;;;;;5030282;28;20084;-80
2021/01/27 05:36:26;;;;;;;17.52;13.20;;;1.90;96.30;;;;;;5028357;28;20033;-80
2021/01/27 05:39:12;;;;;;;;;;;1.90;96.40;;;;;;5067230;28;20053;-80
2021/01/27 05:41:38;;;;;;;12.85;11.15;;;1.90;95.90;;;;;;5045304;28;19929;-80
2021/01/27 05:44:14;;;;;;;15.30;12.35;;;1.90;96.00;;;;;;5033600;28;20142;-80
2021/01/27 05:46:40;;;;;;;13.05;11.68;;;1.90;96.50;;;;;;5030097;28;20052;-80
2021/01/27 05:49:29;;;;;;;13.30;11.75;;;1.90;96.10;;;;;;5069272;28;20170;-80
2021/01/27 05:52:13;;;;;;;16.13;11.35;;;1.90;96.30;;;;;;5036541;28;20079;-79
2021/01/27 05:54:39;;;;;;;14.07;10.50;;;1.90;96.10;;;;;;5056523;28;20041;-80
2021/01/27 05:57:21;;;;;;;12.30;11.00;;;2.00;96.00;;;;;;5028242;28;20055;-80
2021/01/27 05:59:48;;;;;;;13.48;10.88;;;2.00;96.10;;;;;;5049991;28;20156;-80
2021/01/27 06:02:15;;;;;;;12.18;10.75;;;2.00;96.10;;;;;;5033335;28;20087;-80
2021/01/27 06:04:57;;;;;;;14.07;12.35;;;2.00;96.20;;;;;;5057013;28;20060;-79
2021/01/27 06:07:26;;;;;;;11.65;10.13;;;2.00;96.50;;;;;;5044308;28;20088;-80
2021/01/27 06:09:54;;;;;;;11.55;10.25;;;2.00;96.40;;;;;;5052976;28;20485;-81
2021/01/27 06:12:20;;;;;;;14.35;11.15;;;2.00;96.50;;;;;;5063105;28;20146;-80
2021/01/27 06:14:46;;;;;;;13.07;10.98;;;1.90;96.60;;;;;;5066007;28;20063;-79
2021/01/27 06:17:24;;;;;;;13.48;11.20;;;2.00;96.60;;;;;;5034703;28;20037;-79
2021/01/27 06:20:15;;;;;;;12.88;10.60;;;1.90;96.50;;;;;;5038474;28;20626;-79
2021/01/27 06:22:44;;;;;;;12.45;11.15;;;1.80;96.50;;;;;;5045558;28;20100;-79
2021/01/27 06:25:18;;;;;;;11.98;10.63;;;1.80;96.60;;;;;;5063884;28;20061;-79
2021/01/27 06:28:09;;;;;;;15.23;11.88;;;1.70;96.70;;;;;;5038038;28;20060;-80
2021/01/27 06:30:56;;;;;;;16.35;13.45;;;1.60;96.90;;;;;;5040460;28;20048;-79
2021/01/27 06:33:40;;;;;;;15.27;12.73;;;1.60;97.10;;;;;;5057876;28;20171;-80
2021/01/27 06:36:36;;;;;;;13.85;12.35;;;1.60;97.30;;;;;;5045410;28;20441;-79
2021/01/27 06:39:09;;;;;;;18.23;13.07;;;1.50;97.40;;;;;;5060477;28;20437;-79
2021/01/27 06:41:49;;;;;;;16.98;12.70;;;1.40;97.40;;;;;;5046420;28;20098;-79
2021/01/27 06:44:25;;;;;;;17.10;13.07;;;1.40;97.50;;;;;;5044217;28;20120;-79
2021/01/27 06:47:14;;;;;;;18.38;14.40;;;1.30;97.50;;;;;;5052072;28;20048;-79
2021/01/27 06:50:21;;;;;;;17.10;14.50;;;1.30;97.50;;;;;;5047746;28;20029;-79
2021/01/27 06:53:18;;;;;;;17.77;14.75;;;1.20;97.50;;;;;;5031225;28;20140;-79
2021/01/27 06:56:16;;;;;;;21.98;15.40;;;1.10;97.60;;;;;;5032782;28;20052;-79
2021/01/27 06:59:04;;;;;;;20.63;14.68;;;1.10;97.70;;;;;;5052365;28;20065;-78
2021/01/27 07:02:07;;;;;;;22.33;16.00;;;1.10;97.80;;;;;;5047905;28;20034;-79
2021/01/27 07:05:11;;;;;;;21.27;15.85;;;1.00;97.90;;;;;;5023936;28;20049;-79
2021/01/27 07:08:08;;;;;;;21.02;15.82;;;1.00;97.90;;;;;;5027160;28;20058;-79
2021/01/27 07:10:37;;;;;;;22.50;16.48;;;1.00;98.00;;;;;;5063263;28;20495;-79
2021/01/27 07:13:22;;;;;;;24.48;16.45;;;1.00;98.00;;;;;;5025660;28;20041;-78
2021/01/27 07:16:10;;;;;;;25.15;17.67;;;1.00;98.10;;;;;;5058618;28;20049;-78
2021/01/27 07:18:54;;;;;;;24.13;16.58;;;0.90;98.20;;;;;;5036458;28;20053;-79
2021/01/27 07:21:27;;;;;;;28.08;18.48;;;0.90;98.20;;;;;;5033916;28;20045;-79
2021/01/27 07:24:06;;;;;;;24.33;17.27;;;0.90;98.30;;;;;;5041676;28;20049;-78
2021/01/27 07:26:49;;;;;;;29.75;18.83;;;0.90;98.30;;;;;;5048087;28;20040;-79
2021/01/27 07:29:23;;;;;;;26.17;17.52;;;0.90;98.40;;;;;;5033523;28;20075;-79
2021/01/27 07:32:04;;;;;;;28.73;19.00;;;0.90;98.40;;;;;;5055168;28;20088;-79
2021/01/27 07:34:47;;;;;;;26.52;18.75;;;0.90;98.40;;;;;;5049942;28;20107;-78
2021/01/27 07:37:34;;;;;;;26.63;18.42;;;0.90;98.50;;;;;;5061254;28;20087;-79
2021/01/27 07:40:41;;;;;;;27.25;18.27;;;0.80;98.50;;;;;;5038112;28;20040;-78
2021/01/27 07:43:16;;;;;;;27.33;18.67;;;0.90;98.60;;;;;;4987888;28;20114;-79
2021/01/27 07:45:49;;;;;;;29.17;20.02;;;0.90;98.60;;;;;;4933252;28;20050;-79
2021/01/27 07:48:18;;;;;;;28.63;19.55;;;0.90;98.60;;;;;;4978144;28;20195;-80
2021/01/27 07:50:53;;;;;;;27.00;19.38;;;0.90;98.60;;;;;;4977578;28;20097;-79
2021/01/27 07:53:28;;;;;;;30.15;18.90;;;0.80;98.70;;;;;;4996539;28;20034;-79
2021/01/27 07:56:28;;;;;;;23.08;18.23;;;0.90;98.70;;;;;;4991303;28;20053;-80
2021/01/27 07:59:04;;;;;;;24.27;16.95;;;0.80;98.70;;;;;;4970028;28;20074;-81
2021/01/27 08:01:49;;;;;;;26.63;17.83;;;0.80;99.00;;;;;;4988658;28;20042;-81
2021/01/27 08:04:39;;;;;;;27.88;18.52;;;0.80;98.80;;;;;;4998656;28;20058;-81
2021/01/27 08:07:06;;;;;;;27.70;18.17;;;0.80;98.80;;;;;;4991274;28;20078;-81
2021/01/27 08:09:38;;;;;;;23.55;17.98;;;0.80;98.80;;;;;;4999628;28;20050;-80
2021/01/27 08:12:26;;;;;;;23.33;17.13;;;0.80;98.80;;;;;;4971467;28;20546;-80
2021/01/27 08:15:12;;;;;;;21.83;16.38;;;0.80;98.80;;;;;;4994341;28;20639;-80
2021/01/27 08:17:44;;;;;;;24.13;17.02;;;0.90;98.90;;;;;;4985538;28;20093;-80
2021/01/27 08:20:20;;;;;;;27.08;18.77;;;0.90;98.90;;;;;;5017661;28;20063;-79
2021/01/27 08:23:04;;;;;;;27.77;18.10;;;0.90;98.90;;;;;;5038603;28;20056;-80
2021/01/27 08:26:00;;;;;;;23.55;16.73;;;0.90;98.90;;;;;;5071257;28;20111;-80
2021/01/27 08:28:33;;;;;;;23.27;17.20;;;0.90;98.90;;;;;;5029132;28;20469;-80
2021/01/27 08:31:12;;;;;;;17.35;15.38;;;0.90;99.00;;;;;;5076493;28;20059;-80
2021/01/27 08:33:47;;;;;;;21.60;15.27;;;0.90;98.90;;;;;;5041548;28;20036;-81
2021/01/27 08:36:30;;;;;;;17.25;14.77;;;0.90;99.00;;;;;;5060459;28;20055;-81
2021/01/27 08:38:56;;;;;;;18.73;15.38;;;0.90;99.00;;;;;;5047172;28;20107;-81
2021/01/27 08:42:00;;;;;;;18.17;14.05;;;0.90;98.90;;;;;;5048747;28;20041;-81
2021/01/27 08:44:32;;;;;;;17.92;14.93;;;1.00;99.00;;;;;;5076263;28;20504;-80
2021/01/27 08:47:33;;;;;;;21.45;16.10;;;1.00;99.00;;;;;;5048105;28;20056;-82
2021/01/27 08:50:00;;;;;;;17.02;14.63;;;1.00;99.00;;;;;;5081495;28;20060;-79
2021/01/27 08:52:35;;;;;;;18.45;15.23;;;1.10;99.00;;;;;;5046029;28;20048;-80
2021/01/27 08:55:32;;;;;;;19.42;15.65;;;1.00;99.00;;;;;;5036881;28;20124;-80
2021/01/27 08:58:22;;;;;;;18.23;15.23;;;1.10;99.00;;;;;;5040972;28;20045;-80
2021/01/27 09:00:49;;;;;;;21.05;16.27;;;1.00;98.90;;;;;;5061432;28;20143;-80
2021/01/27 09:03:34;;;;;;;21.05;16.48;;;1.10;99.00;;;;;;5024384;28;20053;-80
2021/01/27 09:06:01;;;;;;;21.75;17.75;;;1.10;99.00;;;;;;5070908;28;20072;-81
2021/01/27 09:08:30;;;;;;;21.40;16.27;;;1.10;99.00;;;;;;5036674;28;20048;-80
2021/01/27 09:11:02;;;;;;;25.88;17.63;;;1.10;99.00;;;;;;5033445;28;20401;-81
2021/01/27 09:13:41;;;;;;;23.40;16.02;;;1.10;99.00;;;;;;5030352;28;20053;-81
2021/01/27 09:16:11;;;;;;;20.88;15.77;;;1.20;99.10;;;;;;5052980;28;20116;-80
2021/01/27 09:18:39;;;;;;;25.33;17.85;;;1.20;99.10;;;;;;5029206;28;20109;-84
2021/01/27 09:21:19;;;;;;;28.17;19.05;;;1.20;99.20;;;;;;5016704;28;20033;-80
2021/01/27 09:23:53;;;;;;;23.27;16.98;;;1.20;99.20;;;;;;5032807;28;20132;-81
2021/01/27 09:26:30;;;;;;;21.98;17.27;;;1.20;99.20;;;;;;5064541;28;20105;-80
2021/01/27 09:29:09;;;;;;;21.45;16.75;;;1.20;99.20;;;;;;5040811;28;20064;-79
2021/01/27 09:31:34;;;;;;;25.85;19.00;;;1.30;99.20;;;;;;5061845;28;20044;-82
2021/01/27 09:34:21;;;;;;;27.63;19.10;;;1.30;99.30;;;;;;5080727;28;20805;-80
2021/01/27 09:36:49;;;;;;;28.70;20.73;;;1.30;99.30;;;;;;5044901;28;20049;-81
2021/01/27 09:39:31;;;;;;;22.85;18.45;;;1.30;99.30;;;;;;5051929;28;20028;-81
2021/01/27 09:42:03;;;;;;;22.73;17.75;;;1.30;99.30;;;;;;5084009;28;20550;-81
2021/01/27 09:44:36;;;;;;;23.15;17.80;;;1.40;99.40;;;;;;5090321;28;20102;-81
2021/01/27 09:47:11;;;;;;;22.92;16.92;;;1.40;99.40;;;;;;5052369;28;20052;-80
2021/01/27 09:49:49;;;;;;;25.13;18.25;;;1.40;99.30;;;;;;5057135;28;20051;-80
2021/01/27 09:52:16;;;;;;;26.27;18.67;;;1.50;99.40;;;;;;5053546;28;20061;-80
2021/01/27 09:54:49;;;;;;;22.70;17.17;;;1.50;99.30;;;;;;5051081;28;20044;-79
2021/01/27 09:57:19;;;;;;;22.48;17.02;;;1.50;99.40;;;;;;5075919;28;20033;-80
2021/01/27 09:59:56;;;;;;;23.00;17.02;;;1.50;99.40;;;;;;5025495;28;20048;-80
2021/01/27 10:02:32;;;;;;;22.33;16.30;;;1.50;99.40;;;;;;5055974;28;20421;-81
2021/01/27 10:04:59;;;;;;;20.13;15.82;;;1.60;99.50;;;;;;5046099;28;20101;-80
2021/01/27 10:07:37;;;;;;;16.00;14.07;;;1.60;99.50;;;;;;5041761;28;20049;-80
2021/01/27 10:10:15;;;;;;;23.15;16.38;;;1.70;99.50;;;;;;5061918;28;20053;-81
2021/01/27 10:12:41;;;;;;;24.52;17.02;;;1.70;99.50;;;;;;5046696;28;20033;-80
2021/01/27 10:15:30;;;;;;;22.92;16.77;;;1.60;99.40;;;;;;5064039;28;20040;-81
2021/01/27 10:18:08;;;;;;;22.20;15.45;;;1.70;99.50;;;;;;5047749;28;20042;-81
2021/01/27 10:20:36;;;;;;;24.50;16.77;;;1.70;99.50;;;;;;5064818;28;20063;-80
2021/01/27 10:23:08;;;;;;;19.33;14.68;;;1.70;99.50;;;;;;5042058;28;20069;-80
2021/01/27 10:25:37;;;;;;;18.55;14.45;;;1.80;99.60;;;;;;5029974;28;20061;-80
2021/01/27 10:28:17;;;;;;;28.55;17.00;;;1.80;99.60;;;;;;5055273;28;20720;-79
2021/01/27 10:30:51;;;;;;;30.42;17.55;;;1.90;99.80;;;;;;5066934;28;20758;-80
2021/01/27 10:33:47;;;;;;;23.63;15.63;;;1.90;99.70;;;;;;5041254;28;20045;-80
2021/01/27 10:36:31;;;;;;;26.83;16.52;;;2.00;99.80;;;;;;5033094;28;20098;-80
2021/01/27 10:39:11;;;;;;;30.67;19.20;;;2.00;99.70;;;;;;5067096;28;20420;-80
2021/01/27 10:41:36;;;;;;;25.98;17.55;;;2.10;99.80;;;;;;5061239;28;20311;-80
2021/01/27 10:44:18;;;;;;;23.52;15.88;;;2.20;99.90;;;;;;5045486;28;20052;-81
2021/01/27 10:46:44;;;;;;;27.75;17.27;;;2.20;99.80;;;;;;5049413;28;20033;-80
2021/01/27 10:49:10;;;;;;;31.90;17.52;;;2.20;99.80;;;;;;5022191;28;20053;-81
2021/01/27 10:51:36;;;;;;;24.63;15.95;;;2.30;99.90;;;;;;5052555;28;20115;-80
2021/01/27 10:54:03;;;;;;;25.10;15.70;;;2.40;99.90;;;;;;5041818;28;20067;-81
2021/01/27 10:56:29;;;;;;;19.00;14.38;;;2.40;99.90;;;;;;5014963;28;20116;-80
2021/01/27 10:58:55;;;;;;;21.35;14.25;;;2.40;99.90;;;;;;5027579;28;20322;-81
2021/01/27 11:01:21;;;;;;;18.75;14.32;;;2.40;99.90;;;;;;5039384;28;20033;-81
2021/01/27 11:03:47;;;;;;;18.08;13.63;;;2.40;99.90;;;;;;5043800;28;20049;-80
2021/01/27 11:06:13;;;;;;;25.35;15.98;;;2.50;99.90;;;;;;5028220;28;20107;-80
2021/01/27 11:08:42;;;;;;;27.00;16.55;;;2.50;99.90;;;;;;5025727;28;20445;-81
2021/01/27 11:11:08;;;;;;;27.25;16.13;;;2.50;99.90;;;;;;5041642;28;20054;-80
2021/01/27 11:13:35;;;;;;;32.83;18.45;;;2.60;99.90;;;;;;5058650;28;20037;-82
2021/01/27 11:16:08;;;;;;;18.13;13.40;;;2.50;99.90;;;;;;5048166;28;20071;-81
2021/01/27 11:18:34;;;;;;;22.67;16.30;;;2.60;99.90;;;;;;5045049;28;20061;-82
2021/01/27 11:21:01;;;;;;;31.73;17.27;;;2.60;99.90;;;;;;5051472;28;20042;-83
2021/01/27 11:23:27;;;;;;;25.10;15.63;;;2.70;99.90;;;;;;5053571;28;20510;-81
2021/01/27 11:25:53;;;;;;;25.17;15.38;;;2.70;99.90;;;;;;5054104;28;20140;-81
2021/01/27 11:28:21;;;;;;;30.83;16.92;;;2.70;99.90;;;;;;5047958;28;20049;-80
2021/01/27 11:30:49;;;;;;;29.90;18.35;;;2.70;99.90;;;;;;5045054;28;20616;-80
2021/01/27 11:33:18;;;;;;;30.75;17.48;;;2.80;99.90;;;;;;5065241;28;20073;-81
2021/01/27 11:35:44;;;;;;;25.48;15.82;;;2.80;99.90;;;;;;5038787;28;20052;-81
2021/01/27 11:38:10;;;;;;;29.95;17.30;;;2.90;99.90;;;;;;5046172;28;20090;-80
2021/01/27 11:40:36;;;;;;;29.77;17.38;;;2.90;99.90;;;;;;5020008;28;20115;-79
2021/01/27 11:43:02;;;;;;;35.63;18.65;;;2.90;99.90;;;;;;5058130;28;20132;-79
2021/01/27 11:45:28;;;;;;;26.77;17.00;;;2.90;99.90;;;;;;5027563;28;20102;-79
2021/01/27 11:47:54;;;;;;;32.33;18.58;;;3.00;99.90;;;;;;5044485;28;20120;-80
2021/01/27 11:50:23;;;;;;;33.55;17.88;;;3.10;99.90;;;;;;5035528;28;20048;-80
2021/01/27 11:52:49;;;;;;;35.67;19.20;;;3.10;99.90;;;;;;5031208;28;20034;-80
2021/01/27 11:55:17;;;;;;;36.65;19.08;;;3.10;99.90;;;;;;5026503;28;20058;-80
2021/01/27 11:57:43;;;;;;;31.92;18.80;;;3.20;99.90;;;;;;5024433;28;20037;-81
2021/01/27 12:00:10;;;;;;;23.90;16.70;;;3.20;99.90;;;;;;5032295;28;20059;-81
2021/01/27 12:02:36;;;;;;;25.70;16.58;;;3.30;99.90;;;;;;5038362;28;20437;-80
2021/01/27 12:05:05;;;;;;;33.53;18.52;;;3.30;99.90;;;;;;5051865;28;20124;-80
2021/01/27 12:07:31;;;;;;;40.03;20.67;;;3.40;99.90;;;;;;5023344;28;20607;-80
2021/01/27 12:09:56;;;;;;;38.97;20.13;;;3.40;99.90;;;;;;5027493;28;20481;-80
2021/01/27 12:12:22;;;;;;;25.38;17.20;;;3.50;99.90;;;;;;5024609;28;20075;-81
2021/01/27 12:14:48;;;;;;;46.55;21.92;;;3.50;99.90;;;;;;5043087;28;20049;-81
2021/01/27 12:17:14;;;;;;;42.17;20.33;;;3.60;99.90;;;;;;5049180;28;20072;-80
2021/01/27 12:19:40;;;;;;;35.72;20.15;;;3.60;99.90;;;;;;5066284;28;20066;-81
2021/01/27 12:22:06;;;;;;;45.20;22.17;;;3.60;99.90;;;;;;5031392;28;20135;-80
2021/01/27 12:24:32;;;;;;;58.03;22.52;;;3.60;99.90;;;;;;5067982;28;20508;-82
2021/01/27 12:26:58;;;;;;;39.45;19.83;;;3.70;99.90;;;;;;5034987;28;20045;-80
2021/01/27 12:29:24;;;;;;;32.08;18.83;;;3.70;99.90;;;;;;5023957;28;20059;-82
2021/01/27 12:31:51;;;;;;;32.15;18.23;;;3.80;99.90;;;;;;5031913;28;20041;-82
2021/01/27 12:34:18;;;;;;;41.55;21.08;;;3.80;99.90;;;;;;5021400;28;20053;-81
2021/01/27 12:36:44;;;;;;;33.13;19.38;;;3.90;99.90;;;;;;5021935;28;20071;-82
2021/01/27 12:39:09;;;;;;;26.20;16.88;;;3.80;99.90;;;;;;5041997;28;20144;-81
2021/01/27 12:41:36;;;;;;;43.97;20.55;;;3.80;99.90;;;;;;5058521;28;20057;-81
2021/01/27 12:44:03;;;;;;;43.80;19.60;;;3.70;99.90;;;;;;5016277;28;20076;-81
2021/01/27 12:46:29;;;;;;;40.72;19.75;;;3.90;99.90;;;;;;5025909;28;20048;-80
2021/01/27 12:48:54;;;;;;;46.72;21.77;;;3.90;99.90;;;;;;5041624;28;20067;-82
2021/01/27 12:51:21;;;;;;;39.65;20.30;;;3.90;99.90;;;;;;5053962;28;20029;-80
2021/01/27 12:53:47;;;;;;;43.28;21.23;;;4.00;99.90;;;;;;5043585;28;20056;-81
2021/01/27 12:56:13;;;;;;;37.72;20.08;;;3.90;99.90;;;;;;5041123;28;20109;-82
2021/01/27 12:58:39;;;;;;;46.38;21.95;;;4.00;99.90;;;;;;5055390;28;20072;-81
2021/01/27 13:01:05;;;;;;;34.47;18.98;;;4.00;99.90;;;;;;5039655;28;20053;-81
2021/01/27 13:03:31;;;;;;;34.83;18.85;;;4.00;99.90;;;;;;5053227;28;20028;-81
2021/01/27 13:05:58;;;;;;;42.25;20.52;;;4.00;99.90;;;;;;5026179;28;20112;-81
2021/01/27 13:08:26;;;;;;;41.63;21.33;;;4.00;99.90;;;;;;5038677;28;20088;-81
2021/01/27 13:10:52;;;;;;;48.28;22.70;;;4.00;99.90;;;;;;5052908;28;20117;-80